• Join FlightAware (Why Join?)
  • Login
  • US Flag 
07:55AM EDT


 

Airport Tracker/Info


-or-


 

Live Flight TrackerFlight Track Log ✈ TAM3749 ✈ 18-May-2013 ✈ SBEG / MAO - SBGR / GRU

Flight Track Log - Related Links

Times and Time Zones

All times are in EDT time to prevent confusion due to time zone crossing. See the TAM3749 flight status page for this flight to view local times or setup timezone preferences in your user account.

Time Position Orientation Groundspeed Altitude Reporting Facility
EDT Latitude Longitude Course Direction KTS MPH feet Rate Location/Type
04:39PM -3.0390 -60.0350 90° East 175 201 600  Level FlightAware
04:40PM -3.0390 -60.0120 90° East 166 191 1,700 1,680 Climbing FlightAware
04:40PM -3.0400 -60.0000 95° East 180 207 1,900 720 Climbing FlightAware
04:41PM -3.0410 -59.9760 92° East 213 245 2,200 720 Climbing FlightAware
04:41PM -3.0460 -59.9610 108° East 238 274 2,400 1,200 Climbing FlightAware
04:41PM -3.0600 -59.9520 147° Southeast 259 298 2,800 2,400 Climbing FlightAware
04:42PM -3.0890 -59.9400 158° South 266 306 4,000 2,820 Climbing FlightAware
04:42PM -3.1060 -59.9320 155° Southeast 267 307 4,700 2,820 Climbing FlightAware
04:42PM -3.1350 -59.9180 154° Southeast 271 312 5,900 2,700 Climbing FlightAware
04:43PM -3.1690 -59.9020 155° Southeast 279 321 7,200 2,460 Climbing FlightAware
04:43PM -3.2050 -59.8850 155° Southeast 288 331 8,400 2,520 Climbing FlightAware
04:43PM -3.2220 -59.8770 155° Southeast 290 334 9,100 2,400 Climbing FlightAware
04:44PM -3.2720 -59.8530 154° Southeast 303 349 10,600 1,740 Climbing FlightAware
04:45PM -3.3350 -59.8240 155° Southeast 342 394 11,600 1,800 Climbing FlightAware
04:46PM -3.3960 -59.8010 159° South 352 405 13,200 2,100 Climbing FlightAware
04:46PM -3.4600 -59.7940 174° South 366 421 14,400 2,160 Climbing FlightAware
04:47PM -3.5380 -59.7910 178° South 368 423 16,300 2,280 Climbing FlightAware
04:48PM -3.6080 -59.7970 185° South 376 433 17,700 2,040 Climbing FlightAware
04:48PM -3.6830 -59.8070 188° South 381 438 19,200 1,680 Climbing FlightAware
04:49PM -3.7500 -59.7910 167° South 380 437 20,100 1,380 Climbing FlightAware
04:50PM -3.8120 -59.7530 149° Southeast 391 450 21,100 1,620 Climbing FlightAware
04:50PM -3.8840 -59.7070 147° Southeast 397 457 22,400 1,620 Climbing FlightAware
04:51PM -3.9440 -59.6660 146° Southeast 403 464 23,400 1,020 Climbing FlightAware
04:52PM -4.0180 -59.6180 147° Southeast 407 468 24,000 360 Climbing FlightAware
04:53PM -4.0850 -59.5740 147° Southeast 407 468 24,000  Level FlightAware
04:53PM -4.1390 -59.5390 147° Southeast 407 468 24,000  Level FlightAware
04:54PM -4.1930 -59.5040 147° Southeast 407 468 24,000  Level FlightAware
04:55PM -4.2470 -59.4690 147° Southeast 407 468 24,000  Level FlightAware
04:55PM -4.3000 -59.4340 147° Southeast 407 468 24,000 60 Level FlightAware
04:58PM -4.4935 -59.3128 148° Southeast  Level Estimated
04:59PM -4.5878 -59.2536 148° Southeast  Level Estimated
05:00PM -4.6822 -59.1944 148° Southeast  Level Estimated
05:01PM -4.7766 -59.1352 148° Southeast  Level Estimated
05:02PM -4.8709 -59.0760 148° Southeast  Level Estimated
05:03PM -4.9653 -59.0168 148° Southeast  Level Estimated
05:04PM -5.0596 -58.9575 148° Southeast  Level Estimated
05:05PM -5.1539 -58.8983 148° Southeast  Level Estimated
05:06PM -5.2483 -58.8390 148° Southeast  Level Estimated
05:07PM -5.3426 -58.7797 148° Southeast  Level Estimated
05:08PM -5.4369 -58.7203 148° Southeast  Level Estimated
05:09PM -5.5312 -58.6610 148° Southeast  Level Estimated
05:10PM -5.6255 -58.6017 148° Southeast  Level Estimated
05:11PM -5.7199 -58.5423 148° Southeast  Level Estimated
05:12PM -5.8141 -58.4829 148° Southeast  Level Estimated
05:13PM -5.9084 -58.4235 148° Southeast  Level Estimated
05:14PM -6.0027 -58.3640 148° Southeast  Level Estimated
05:15PM -6.0970 -58.3046 148° Southeast  Level Estimated
05:16PM -6.1913 -58.2451 148° Southeast  Level Estimated
05:17PM -6.2856 -58.1856 148° Southeast  Level Estimated
05:18PM -6.3798 -58.1260 148° Southeast  Level Estimated
05:19PM -6.4741 -58.0665 148° Southeast  Level Estimated
05:20PM -6.5683 -58.0070 148° Southeast  Level Estimated
05:21PM -6.6625 -57.9474 148° Southeast  Level Estimated
05:22PM -6.7568 -57.8877 148° Southeast  Level Estimated
05:23PM -6.8510 -57.8281 148° Southeast  Level Estimated
05:24PM -6.9452 -57.7685 148° Southeast  Level Estimated
05:25PM -7.0394 -57.7088 148° Southeast  Level Estimated
05:26PM -7.1332 -57.6493 148° Southeast  Level Estimated
05:27PM -7.2270 -57.5899 148° Southeast  Level Estimated
05:28PM -7.3207 -57.5304 148° Southeast  Level Estimated
05:29PM -7.4145 -57.4709 148° Southeast  Level Estimated
05:30PM -7.5082 -57.4114 148° Southeast  Level Estimated
05:31PM -7.6019 -57.3518 148° Southeast  Level Estimated
05:32PM -7.6957 -57.2922 148° Southeast  Level Estimated
05:33PM -7.7894 -57.2326 148° Southeast  Level Estimated
05:34PM -7.8831 -57.1730 148° Southeast  Level Estimated
05:35PM -7.9768 -57.1133 148° Southeast  Level Estimated
05:36PM -8.0656 -57.0567 148° Southeast  Level Estimated
05:37PM -8.1544 -57.0001 148° Southeast  Level Estimated
05:38PM -8.2432 -56.9435 148° Southeast  Level Estimated
05:39PM -8.3320 -56.8868 148° Southeast  Level Estimated
05:40PM -8.4208 -56.8301 148° Southeast  Level Estimated
05:41PM -8.5096 -56.7734 148° Southeast  Level Estimated
05:42PM -8.5984 -56.7167 148° Southeast  Level Estimated
05:43PM -8.6872 -56.6599 148° Southeast  Level Estimated
05:44PM -8.7759 -56.6031 148° Southeast  Level Estimated
05:45PM -8.8647 -56.5463 148° Southeast  Level Estimated
05:46PM -8.9534 -56.4894 148° Southeast  Level Estimated
05:47PM -9.0421 -56.4325 148° Southeast  Level Estimated
05:48PM -9.1308 -56.3756 148° Southeast  Level Estimated
05:49PM -9.2196 -56.3187 148° Southeast  Level Estimated
05:50PM -9.3083 -56.2617 148° Southeast  Level Estimated
05:51PM -9.3970 -56.2048 148° Southeast  Level Estimated
05:52PM -9.4857 -56.1477 148° Southeast  Level Estimated
05:53PM -9.5744 -56.0907 148° Southeast  Level Estimated
05:54PM -9.6630 -56.0336 148° Southeast  Level Estimated
05:55PM -9.7517 -55.9765 148° Southeast  Level Estimated
05:56PM -9.8403 -55.9194 148° Southeast  Level Estimated
05:57PM -9.9290 -55.8622 148° Southeast  Level Estimated
05:58PM -10.0176 -55.8050 148° Southeast  Level Estimated
05:59PM -10.1062 -55.7478 148° Southeast  Level Estimated
06:00PM -10.1948 -55.6905 148° Southeast  Level Estimated
06:01PM -10.2834 -55.6332 148° Southeast  Level Estimated
06:02PM -10.3720 -55.5759 148° Southeast  Level Estimated
06:03PM -10.4606 -55.5185 148° Southeast  Level Estimated
06:04PM -10.5492 -55.4611 148° Southeast  Level Estimated
06:05PM -10.6377 -55.4037 147° Southeast  Level Estimated
06:06PM -10.7263 -55.3462 147° Southeast  Level Estimated
06:07PM -10.8148 -55.2887 147° Southeast  Level Estimated
06:08PM -10.9033 -55.2312 147° Southeast  Level Estimated
06:09PM -10.9919 -55.1736 147° Southeast  Level Estimated
06:10PM -11.0804 -55.1160 147° Southeast  Level Estimated
06:11PM -11.1689 -55.0584 147° Southeast  Level Estimated
06:12PM -11.2574 -55.0007 147° Southeast  Level Estimated
06:13PM -11.3458 -54.9430 147° Southeast  Level Estimated
06:14PM -11.4343 -54.8853 147° Southeast  Level Estimated
06:15PM -11.5227 -54.8275 147° Southeast  Level Estimated
06:16PM -11.6112 -54.7697 147° Southeast  Level Estimated
06:17PM -11.6996 -54.7119 147° Southeast  Level Estimated
06:18PM -11.7880 -54.6540 147° Southeast  Level Estimated
06:19PM -11.8764 -54.5961 147° Southeast  Level Estimated
06:20PM -11.9648 -54.5381 147° Southeast  Level Estimated
06:21PM -12.0532 -54.4801 147° Southeast  Level Estimated
06:22PM -12.1416 -54.4221 147° Southeast  Level Estimated
06:23PM -12.2299 -54.3640 147° Southeast  Level Estimated
06:24PM -12.3183 -54.3059 147° Southeast  Level Estimated
06:25PM -12.4066 -54.2477 147° Southeast  Level Estimated
06:26PM -12.4950 -54.1895 147° Southeast  Level Estimated
06:27PM -12.5833 -54.1313 147° Southeast  Level Estimated
06:28PM -12.6716 -54.0731 147° Southeast  Level Estimated
06:29PM -12.7598 -54.0147 147° Southeast  Level Estimated
06:30PM -12.8481 -53.9564 147° Southeast  Level Estimated
06:31PM -12.9364 -53.8980 147° Southeast  Level Estimated
06:32PM -13.0246 -53.8396 147° Southeast  Level Estimated
06:33PM -13.1128 -53.7811 147° Southeast  Level Estimated
06:34PM -13.2011 -53.7226 147° Southeast  Level Estimated
06:35PM -13.2893 -53.6640 147° Southeast  Level Estimated
06:36PM -13.3775 -53.6054 147° Southeast  Level Estimated
06:37PM -13.4656 -53.5467 147° Southeast  Level Estimated
06:38PM -13.5538 -53.4881 147° Southeast  Level Estimated
06:39PM -13.6419 -53.4293 147° Southeast  Level Estimated
06:40PM -13.7301 -53.3705 147° Southeast  Level Estimated
06:41PM -13.8182 -53.3117 147° Southeast  Level Estimated
06:42PM -13.9063 -53.2529 147° Southeast  Level Estimated
06:43PM -13.9944 -53.1940 147° Southeast  Level Estimated
06:44PM -14.0825 -53.1350 147° Southeast  Level Estimated
06:45PM -14.1706 -53.0760 147° Southeast  Level Estimated
06:46PM -14.2586 -53.0169 147° Southeast  Level Estimated
06:47PM -14.3467 -52.9579 147° Southeast  Level Estimated
06:48PM -14.4347 -52.8987 147° Southeast  Level Estimated
06:49PM -14.5227 -52.8395 147° Southeast  Level Estimated
06:50PM -14.6107 -52.7803 147° Southeast  Level Estimated
06:51PM -14.6987 -52.7210 147° Southeast  Level Estimated
06:52PM -14.7866 -52.6617 147° Southeast  Level Estimated
06:53PM -14.8746 -52.6023 147° Southeast  Level Estimated
06:54PM -14.9625 -52.5429 147° Southeast  Level Estimated
06:55PM -15.0504 -52.4834 147° Southeast  Level Estimated
06:56PM -15.1383 -52.4239 147° Southeast  Level Estimated
06:57PM -15.2262 -52.3643 147° Southeast  Level Estimated
06:58PM -15.3141 -52.3047 147° Southeast  Level Estimated
06:59PM -15.4019 -52.2450 147° Southeast  Level Estimated
07:00PM -15.4898 -52.1853 147° Southeast  Level Estimated
07:00PM -17.9490 -50.5350 147° Southeast 453 521 39,000  Level FlightAware
07:01PM -15.5776 -52.1255 147° Southeast  Level Estimated
07:01PM -18.0280 -50.4740 144° Southeast 452 520 39,000  Level FlightAware
07:02PM -18.1030 -50.4170 144° Southeast 451 519 39,000  Level FlightAware
07:02PM -18.1700 -50.3650 144° Southeast 452 520 39,000  Level FlightAware
07:03PM -18.2470 -50.3060 144° Southeast 452 520 39,000  Level FlightAware
07:04PM -18.3010 -50.2650 144° Southeast 452 520 39,000  Level FlightAware
07:05PM -18.3890 -50.1970 144° Southeast 453 521 39,000  Level FlightAware
07:05PM -18.4580 -50.1440 144° Southeast 454 522 39,000  Level FlightAware
07:06PM -18.5360 -50.0830 143° Southeast 454 522 39,000  Level FlightAware
07:07PM -18.5930 -50.0370 143° Southeast 454 522 39,000  Level FlightAware
07:08PM -18.6640 -49.9810 143° Southeast 454 522 39,000  Level FlightAware
07:08PM -18.7210 -49.9350 143° Southeast 454 522 39,000  Level FlightAware
07:09PM -18.8400 -49.8480 145° Southeast 451 519 39,000  Level FlightAware
07:10PM -18.9070 -49.7960 144° Southeast 451 519 39,000  Level FlightAware
07:11PM -18.9840 -49.7350 143° Southeast 452 520 39,000  Level FlightAware
07:11PM -19.0720 -49.6670 144° Southeast 452 520 39,000  Level FlightAware
07:12PM -19.1430 -49.6120 144° Southeast 452 520 39,000  Level FlightAware
07:13PM -19.2110 -49.5590 144° Southeast 451 519 39,000  Level FlightAware
07:13PM -19.2830 -49.5030 144° Southeast 451 519 39,000  Level FlightAware
07:14PM -19.3490 -49.4510 143° Southeast 451 519 39,000  Level FlightAware
07:15PM -19.4260 -49.3910 144° Southeast 452 520 39,000  Level FlightAware
07:15PM -19.4860 -49.3440 144° Southeast 453 521 39,000  Level FlightAware
07:16PM -19.5640 -49.2830 144° Southeast 454 522 39,000  Level FlightAware
07:17PM -19.6350 -49.2270 143° Southeast 455 524 39,000  Level FlightAware
07:18PM -19.7060 -49.1710 143° Southeast 455 524 39,000  Level FlightAware
07:18PM -19.7820 -49.1120 144° Southeast 455 524 39,000  Level FlightAware
07:19PM -19.8490 -49.0590 143° Southeast 454 522 39,000  Level FlightAware
07:20PM -19.9200 -49.0030 143° Southeast 454 522 39,000  Level FlightAware
07:20PM -19.9920 -48.9460 143° Southeast 454 522 39,000  Level FlightAware
07:21PM -20.0610 -48.8910 143° Southeast 455 524 39,000  Level FlightAware
07:22PM -20.1350 -48.8320 143° Southeast 455 524 39,000  Level FlightAware
07:23PM -20.2050 -48.7770 144° Southeast 455 524 39,000  Level FlightAware
07:23PM -20.2750 -48.7220 144° Southeast 456 525 39,000  Level FlightAware
07:24PM -20.3490 -48.6630 143° Southeast 455 524 39,000  Level FlightAware
07:25PM -20.4170 -48.6090 143° Southeast 455 524 39,000  Level FlightAware
07:25PM -20.4910 -48.5500 143° Southeast 457 526 39,000  Level FlightAware
07:26PM -20.5600 -48.4950 143° Southeast 460 529 39,000  Level FlightAware
07:27PM -20.6320 -48.4380 143° Southeast 461 531 39,000  Level FlightAware
07:27PM -20.7030 -48.3800 143° Southeast 460 529 39,000  Level FlightAware
07:28PM -20.7710 -48.3260 143° Southeast 461 531 39,000  Level FlightAware
07:29PM -20.8470 -48.2650 143° Southeast 462 532 39,000  Level FlightAware
07:30PM -20.9210 -48.2060 143° Southeast 464 534 39,000  Level FlightAware
07:30PM -20.9880 -48.1540 144° Southeast 460 529 39,000  Level FlightAware
07:31PM -21.0690 -48.1010 149° Southeast 458 527 39,000  Level FlightAware
07:32PM -21.1450 -48.0530 150° Southeast 460 529 39,000  Level FlightAware
07:32PM -21.2250 -48.0000 148° Southeast 462 532 39,000  Level FlightAware
07:33PM -21.3010 -47.9500 148° Southeast 462 532 39,000  Level FlightAware
07:34PM -21.3720 -47.9030 148° Southeast 462 532 39,000  Level FlightAware
07:34PM -21.4520 -47.8500 148° Southeast 461 531 39,000  Level FlightAware
07:35PM -21.5280 -47.8000 149° Southeast 460 529 39,000 -240 Level FlightAware
07:36PM -21.6110 -47.7440 148° Southeast 460 529 38,700 -660 Descending FlightAware
07:37PM -21.6840 -47.6960 149° Southeast 462 532 38,100 -1,020 Descending FlightAware
07:37PM -21.7560 -47.6470 148° Southeast 467 537 37,400 -2,220 Descending FlightAware
07:38PM -21.8170 -47.5640 128° Southeast 513 590 35,000 -3,060 Descending FlightAware
07:39PM -21.8450 -47.4660 107° East 520 598 33,100 -2,940 Descending FlightAware
07:39PM -21.8810 -47.3700 112° Southeast 504 580 31,100 -3,000 Descending FlightAware
07:40PM -21.9580 -47.2950 138° Southeast 486 559 28,900 -2,100 Descending FlightAware
07:41PM -22.0380 -47.2630 160° South 472 543 28,200 -1,080 Descending FlightAware
07:41PM -22.1310 -47.2340 164° South 471 542 27,400 -1,020 Descending FlightAware
07:42PM -22.2150 -47.2080 164° South 466 536 26,800 -1,500 Descending FlightAware
07:43PM -22.3250 -47.1740 164° South 450 518 25,100 -1,980 Descending FlightAware
07:44PM -22.4170 -47.1460 164° South 436 502 23,500 -1,980 Descending FlightAware
07:44PM -22.4860 -47.1250 164° South 436 502 22,300 -1,860 Descending FlightAware
07:45PM -22.5640 -47.1010 164° South 427 491 20,900 -1,980 Descending FlightAware
07:46PM -22.6380 -47.0710 159° South 421 484 19,500 -2,040 Descending FlightAware
07:46PM -22.6980 -47.0470 160° South 415 478 18,400 -2,040 Descending FlightAware
07:47PM -22.7710 -47.0160 159° South 409 471 17,000 -2,100 Descending FlightAware
07:48PM -22.8700 -46.9740 159° South 401 461 15,100 -2,040 Descending FlightAware
07:49PM -22.9410 -46.9450 159° South 394 453 13,800 -2,040 Descending FlightAware
07:49PM -23.0020 -46.9190 159° South 388 447 12,600 -1,380 Descending FlightAware
07:50PM -23.0680 -46.8910 159° South 367 422 12,000 -1,020 Descending FlightAware
07:51PM -23.1350 -46.8630 159° South 325 374 11,200 -1,920 Descending FlightAware
07:51PM -23.1950 -46.8380 159° South 301 346 9,300 -1,980 Descending FlightAware
07:52PM -23.2200 -46.8270 158° South 307 353 8,900 -1,080 Descending FlightAware
07:52PM -23.2410 -46.8180 159° South 293 337 8,600 -960 Descending FlightAware
07:53PM -23.2750 -46.8040 159° South 264 304 8,200 -1,140 Descending FlightAware
07:53PM -23.3030 -46.7920 159° South 254 292 7,600 -1,320 Descending FlightAware
07:54PM -23.3340 -46.7790 159° South 252 290 7,000 -720 Descending FlightAware
07:54PM -23.3570 -46.7690 158° South 252 290 7,000 -300 Level FlightAware
07:54PM -23.3810 -46.7550 152° Southeast 250 288 6,800 -720 Descending FlightAware
07:55PM -23.4080 -46.7300 140° Southeast 224 258 6,400 -660 Descending FlightAware
07:55PM -23.4240 -46.7150 139° Southeast 212 244 6,200 -720 Descending FlightAware
07:56PM -23.4470 -46.6920 137° Southeast 206 237 5,700 -1,080 Descending FlightAware
07:56PM -23.4550 -46.6770 120° Southeast 204 235 5,400 -1,080 Descending FlightAware
07:56PM -23.4640 -46.6550 114° Southeast 198 228 5,000 -720 Descending FlightAware
07:57PM -23.4730 -46.6340 115° Southeast 188 216 4,800 -840 Descending FlightAware
07:57PM -23.4700 -46.6010 84° East 158 182 4,200 -1,020 Descending FlightAware
07:58PM -23.4640 -46.5810 72° East 141 162 3,800 -780 Descending FlightAware
07:58PM -23.4590 -46.5610 75° East 138 159 3,500 -660 Descending FlightAware
07:59PM -23.4540 -46.5440 72° East 137 158 3,200 -780 Descending FlightAware
07:59PM -23.4490 -46.5240 75° East 141 162 2,800 -720 Descending FlightAware
08:00PM -23.4430 -46.5040 72° East 140 161 2,500 -780 Descending FlightAware
08:00PM -23.4390 -46.4860 76° East 142 163 2,100 -960 Descending FlightAware